sensor_id;sensor_type;location;lat;lon;timestamp;temperature;humidity
19920;DHT22;10122;50.074;19.920;2024-01-06T00:01:25;2.30;99.90
19920;DHT22;10122;50.074;19.920;2024-01-06T00:03:51;2.40;99.90
19920;DHT22;10122;50.074;19.920;2024-01-06T00:06:17;2.40;99.90
19920;DHT22;10122;50.074;19.920;2024-01-06T00:08:42;2.30;99.90
19920;DHT22;10122;50.074;19.920;2024-01-06T00:11:09;2.40;99.90
19920;DHT22;10122;50.074;19.920;2024-01-06T00:13:34;2.60;99.90
19920;DHT22;10122;50.074;19.920;2024-01-06T00:16:01;2.50;99.90
19920;DHT22;10122;50.074;19.920;2024-01-06T00:18:26;2.60;99.90
19920;DHT22;10122;50.074;19.920;2024-01-06T00:20:52;2.80;99.90
19920;DHT22;10122;50.074;19.920;2024-01-06T00:23:18;3.00;99.90
19920;DHT22;10122;50.074;19.920;2024-01-06T00:25:44;2.90;99.90
19920;DHT22;10122;50.074;19.920;2024-01-06T00:28:09;2.80;99.90
19920;DHT22;10122;50.074;19.920;2024-01-06T00:30:35;2.80;99.90
19920;DHT22;10122;50.074;19.920;2024-01-06T00:33:01;2.70;99.90
19920;DHT22;10122;50.074;19.920;2024-01-06T00:35:26;2.70;99.90
19920;DHT22;10122;50.074;19.920;2024-01-06T00:37:52;2.70;99.90
19920;DHT22;10122;50.074;19.920;2024-01-06T00:40:18;2.60;99.90
19920;DHT22;10122;50.074;19.920;2024-01-06T00:42:45;2.50;99.90
19920;DHT22;10122;50.074;19.920;2024-01-06T00:45:10;2.40;99.90
19920;DHT22;10122;50.074;19.920;2024-01-06T00:47:36;2.40;99.90
19920;DHT22;10122;50.074;19.920;2024-01-06T00:50:02;2.30;99.90
19920;DHT22;10122;50.074;19.920;2024-01-06T00:52:28;2.40;99.90
19920;DHT22;10122;50.074;19.920;2024-01-06T00:54:53;2.50;99.90
19920;DHT22;10122;50.074;19.920;2024-01-06T00:57:19;2.60;99.90
19920;DHT22;10122;50.074;19.920;2024-01-06T00:59:49;2.60;99.90
19920;DHT22;10122;50.074;19.920;2024-01-06T01:02:15;2.60;99.90
19920;DHT22;10122;50.074;19.920;2024-01-06T01:04:41;2.50;99.90
19920;DHT22;10122;50.074;19.920;2024-01-06T01:07:06;2.50;99.90
19920;DHT22;10122;50.074;19.920;2024-01-06T01:09:32;2.60;99.90
19920;DHT22;10122;50.074;19.920;2024-01-06T01:11:58;2.60;99.90
19920;DHT22;10122;50.074;19.920;2024-01-06T01:14:23;2.50;99.90
19920;DHT22;10122;50.074;19.920;2024-01-06T01:16:49;2.50;99.90
19920;DHT22;10122;50.074;19.920;2024-01-06T01:19:15;2.50;99.90
19920;DHT22;10122;50.074;19.920;2024-01-06T01:21:40;2.50;99.90
19920;DHT22;10122;50.074;19.920;2024-01-06T01:24:06;2.50;99.90
19920;DHT22;10122;50.074;19.920;2024-01-06T01:26:32;2.50;99.90
19920;DHT22;10122;50.074;19.920;2024-01-06T01:28:58;2.50;99.90
19920;DHT22;10122;50.074;19.920;2024-01-06T01:31:23;2.50;99.90
19920;DHT22;10122;50.074;19.920;2024-01-06T01:33:49;2.50;99.90
19920;DHT22;10122;50.074;19.920;2024-01-06T01:36:15;2.50;99.90
19920;DHT22;10122;50.074;19.920;2024-01-06T01:38:41;2.50;99.90
19920;DHT22;10122;50.074;19.920;2024-01-06T01:41:06;2.50;99.90
19920;DHT22;10122;50.074;19.920;2024-01-06T01:43:32;2.50;99.90
19920;DHT22;10122;50.074;19.920;2024-01-06T01:45:58;2.50;99.90
19920;DHT22;10122;50.074;19.920;2024-01-06T01:48:25;2.60;99.90
19920;DHT22;10122;50.074;19.920;2024-01-06T01:50:52;2.70;99.90
19920;DHT22;10122;50.074;19.920;2024-01-06T01:53:19;2.60;99.90
19920;DHT22;10122;50.074;19.920;2024-01-06T01:55:46;2.60;99.90
19920;DHT22;10122;50.074;19.920;2024-01-06T01:58:14;2.70;99.90
19920;DHT22;10122;50.074;19.920;2024-01-06T02:00:41;2.70;99.90
19920;DHT22;10122;50.074;19.920;2024-01-06T02:03:07;2.70;99.90
19920;DHT22;10122;50.074;19.920;2024-01-06T02:05:34;2.80;99.90
19920;DHT22;10122;50.074;19.920;2024-01-06T02:08:00;2.70;99.90
19920;DHT22;10122;50.074;19.920;2024-01-06T02:10:26;2.70;99.90
19920;DHT22;10122;50.074;19.920;2024-01-06T02:12:52;2.60;99.90
19920;DHT22;10122;50.074;19.920;2024-01-06T02:15:18;2.60;99.90
19920;DHT22;10122;50.074;19.920;2024-01-06T02:17:44;2.60;99.90
19920;DHT22;10122;50.074;19.920;2024-01-06T02:20:11;2.50;99.90
19920;DHT22;10122;50.074;19.920;2024-01-06T02:22:39;2.40;99.90
19920;DHT22;10122;50.074;19.920;2024-01-06T02:25:07;2.40;99.90
19920;DHT22;10122;50.074;19.920;2024-01-06T02:27:40;2.40;99.90
19920;DHT22;10122;50.074;19.920;2024-01-06T02:30:06;2.30;99.90
19920;DHT22;10122;50.074;19.920;2024-01-06T02:32:33;2.30;99.90
19920;DHT22;10122;50.074;19.920;2024-01-06T02:34:58;2.30;99.90
19920;DHT22;10122;50.074;19.920;2024-01-06T02:37:24;2.40;99.90
19920;DHT22;10122;50.074;19.920;2024-01-06T02:39:49;2.40;99.90
19920;DHT22;10122;50.074;19.920;2024-01-06T02:42:15;2.40;99.90
19920;DHT22;10122;50.074;19.920;2024-01-06T02:44:41;2.40;99.90
19920;DHT22;10122;50.074;19.920;2024-01-06T02:47:07;2.40;99.90
19920;DHT22;10122;50.074;19.920;2024-01-06T02:49:32;2.30;99.90
19920;DHT22;10122;50.074;19.920;2024-01-06T02:51:58;2.30;99.90
19920;DHT22;10122;50.074;19.920;2024-01-06T02:54:24;2.20;99.90
19920;DHT22;10122;50.074;19.920;2024-01-06T02:56:49;2.20;99.90
19920;DHT22;10122;50.074;19.920;2024-01-06T02:59:15;2.20;99.90
19920;DHT22;10122;50.074;19.920;2024-01-06T03:01:41;2.20;99.90
19920;DHT22;10122;50.074;19.920;2024-01-06T03:04:06;2.20;99.90
19920;DHT22;10122;50.074;19.920;2024-01-06T03:06:33;2.10;99.90
19920;DHT22;10122;50.074;19.920;2024-01-06T03:08:59;2.20;99.90
19920;DHT22;10122;50.074;19.920;2024-01-06T03:11:24;2.20;99.90
19920;DHT22;10122;50.074;19.920;2024-01-06T03:13:50;2.20;99.90
19920;DHT22;10122;50.074;19.920;2024-01-06T03:16:16;2.20;99.90
19920;DHT22;10122;50.074;19.920;2024-01-06T03:18:41;2.30;99.90
19920;DHT22;10122;50.074;19.920;2024-01-06T03:21:19;2.40;99.90
19920;DHT22;10122;50.074;19.920;2024-01-06T03:23:46;2.40;99.90
19920;DHT22;10122;50.074;19.920;2024-01-06T03:26:12;2.30;99.90
19920;DHT22;10122;50.074;19.920;2024-01-06T03:28:38;2.30;99.90
19920;DHT22;10122;50.074;19.920;2024-01-06T03:31:03;2.30;99.90
19920;DHT22;10122;50.074;19.920;2024-01-06T03:33:29;2.20;99.90
19920;DHT22;10122;50.074;19.920;2024-01-06T03:35:55;2.30;99.90
19920;DHT22;10122;50.074;19.920;2024-01-06T03:38:20;2.40;99.90
19920;DHT22;10122;50.074;19.920;2024-01-06T03:40:46;2.40;99.90
19920;DHT22;10122;50.074;19.920;2024-01-06T03:43:12;2.40;99.90
19920;DHT22;10122;50.074;19.920;2024-01-06T03:45:37;2.50;99.90
19920;DHT22;10122;50.074;19.920;2024-01-06T03:48:03;2.60;99.90
19920;DHT22;10122;50.074;19.920;2024-01-06T03:50:29;2.60;99.90
19920;DHT22;10122;50.074;19.920;2024-01-06T03:52:54;2.60;99.90
19920;DHT22;10122;50.074;19.920;2024-01-06T03:55:20;2.50;99.90
19920;DHT22;10122;50.074;19.920;2024-01-06T03:57:46;2.60;99.90
19920;DHT22;10122;50.074;19.920;2024-01-06T04:00:11;2.60;99.90
19920;DHT22;10122;50.074;19.920;2024-01-06T04:02:37;2.60;99.90
19920;DHT22;10122;50.074;19.920;2024-01-06T04:05:03;2.70;99.90
19920;DHT22;10122;50.074;19.920;2024-01-06T04:07:30;2.70;99.90
19920;DHT22;10122;50.074;19.920;2024-01-06T04:09:56;2.70;99.90
19920;DHT22;10122;50.074;19.920;2024-01-06T04:12:21;2.60;99.90
19920;DHT22;10122;50.074;19.920;2024-01-06T04:14:47;2.60;99.90
19920;DHT22;10122;50.074;19.920;2024-01-06T04:17:13;2.50;99.90
19920;DHT22;10122;50.074;19.920;2024-01-06T04:19:38;2.60;99.90
19920;DHT22;10122;50.074;19.920;2024-01-06T04:22:04;2.60;99.90
19920;DHT22;10122;50.074;19.920;2024-01-06T04:24:30;2.60;99.90
19920;DHT22;10122;50.074;19.920;2024-01-06T04:26:55;2.60;99.90
19920;DHT22;10122;50.074;19.920;2024-01-06T04:29:21;2.50;99.90
19920;DHT22;10122;50.074;19.920;2024-01-06T04:31:47;2.50;99.90
19920;DHT22;10122;50.074;19.920;2024-01-06T04:34:12;2.50;99.90
19920;DHT22;10122;50.074;19.920;2024-01-06T04:36:38;2.50;99.90
19920;DHT22;10122;50.074;19.920;2024-01-06T04:39:04;2.60;99.90
19920;DHT22;10122;50.074;19.920;2024-01-06T04:41:29;2.70;99.90
19920;DHT22;10122;50.074;19.920;2024-01-06T04:43:55;2.80;99.90
19920;DHT22;10122;50.074;19.920;2024-01-06T04:46:21;2.70;99.90
19920;DHT22;10122;50.074;19.920;2024-01-06T04:48:47;2.70;99.90
19920;DHT22;10122;50.074;19.920;2024-01-06T04:51:13;2.70;99.90
19920;DHT22;10122;50.074;19.920;2024-01-06T04:53:39;2.70;99.90
19920;DHT22;10122;50.074;19.920;2024-01-06T04:56:05;2.70;99.90
19920;DHT22;10122;50.074;19.920;2024-01-06T04:58:31;2.80;99.90
19920;DHT22;10122;50.074;19.920;2024-01-06T05:00:57;2.90;99.90
19920;DHT22;10122;50.074;19.920;2024-01-06T05:03:22;3.00;99.90
19920;DHT22;10122;50.074;19.920;2024-01-06T05:05:48;3.00;99.90
19920;DHT22;10122;50.074;19.920;2024-01-06T05:08:14;2.90;99.90
19920;DHT22;10122;50.074;19.920;2024-01-06T05:10:39;2.90;99.90
19920;DHT22;10122;50.074;19.920;2024-01-06T05:13:05;2.90;99.90
19920;DHT22;10122;50.074;19.920;2024-01-06T05:15:31;2.80;99.90
19920;DHT22;10122;50.074;19.920;2024-01-06T05:17:56;2.70;99.90
19920;DHT22;10122;50.074;19.920;2024-01-06T05:20:22;2.70;99.90
19920;DHT22;10122;50.074;19.920;2024-01-06T05:22:48;2.70;99.90
19920;DHT22;10122;50.074;19.920;2024-01-06T05:25:14;2.70;99.90
19920;DHT22;10122;50.074;19.920;2024-01-06T05:27:39;2.70;99.90
19920;DHT22;10122;50.074;19.920;2024-01-06T05:30:05;2.70;99.90
19920;DHT22;10122;50.074;19.920;2024-01-06T05:32:31;2.70;99.90
19920;DHT22;10122;50.074;19.920;2024-01-06T05:34:57;2.70;99.90
19920;DHT22;10122;50.074;19.920;2024-01-06T05:37:23;2.80;99.90
19920;DHT22;10122;50.074;19.920;2024-01-06T05:39:48;2.80;99.90
19920;DHT22;10122;50.074;19.920;2024-01-06T05:42:14;2.80;99.90
19920;DHT22;10122;50.074;19.920;2024-01-06T05:44:43;2.80;99.90
19920;DHT22;10122;50.074;19.920;2024-01-06T05:47:08;2.70;99.90
19920;DHT22;10122;50.074;19.920;2024-01-06T05:49:34;2.70;99.90
19920;DHT22;10122;50.074;19.920;2024-01-06T05:52:00;2.70;99.90
19920;DHT22;10122;50.074;19.920;2024-01-06T05:54:25;2.80;99.90
19920;DHT22;10122;50.074;19.920;2024-01-06T05:56:51;2.70;99.90
19920;DHT22;10122;50.074;19.920;2024-01-06T05:59:17;2.70;99.90
19920;DHT22;10122;50.074;19.920;2024-01-06T06:01:43;2.70;99.90
19920;DHT22;10122;50.074;19.920;2024-01-06T06:04:10;2.70;99.90
19920;DHT22;10122;50.074;19.920;2024-01-06T06:06:36;2.60;99.90
19920;DHT22;10122;50.074;19.920;2024-01-06T06:09:03;2.70;99.90
19920;DHT22;10122;50.074;19.920;2024-01-06T06:11:35;2.60;99.90
19920;DHT22;10122;50.074;19.920;2024-01-06T06:14:00;2.60;99.90
19920;DHT22;10122;50.074;19.920;2024-01-06T06:16:28;2.60;99.90
19920;DHT22;10122;50.074;19.920;2024-01-06T06:18:54;2.60;99.90
19920;DHT22;10122;50.074;19.920;2024-01-06T06:21:20;2.60;99.90
19920;DHT22;10122;50.074;19.920;2024-01-06T06:23:46;2.70;99.90
19920;DHT22;10122;50.074;19.920;2024-01-06T06:26:12;2.60;99.90
19920;DHT22;10122;50.074;19.920;2024-01-06T06:28:38;2.60;99.90
19920;DHT22;10122;50.074;19.920;2024-01-06T06:31:03;2.70;99.90
19920;DHT22;10122;50.074;19.920;2024-01-06T06:33:29;2.70;99.90
19920;DHT22;10122;50.074;19.920;2024-01-06T06:35:55;2.80;99.90
19920;DHT22;10122;50.074;19.920;2024-01-06T06:38:21;2.90;99.90
19920;DHT22;10122;50.074;19.920;2024-01-06T06:40:49;2.90;99.90
19920;DHT22;10122;50.074;19.920;2024-01-06T06:43:15;2.90;99.90
19920;DHT22;10122;50.074;19.920;2024-01-06T06:45:40;2.90;99.90
19920;DHT22;10122;50.074;19.920;2024-01-06T06:48:06;2.80;99.90
19920;DHT22;10122;50.074;19.920;2024-01-06T06:50:32;2.70;99.90
19920;DHT22;10122;50.074;19.920;2024-01-06T06:52:58;2.70;99.90
19920;DHT22;10122;50.074;19.920;2024-01-06T06:55:24;2.70;99.90
19920;DHT22;10122;50.074;19.920;2024-01-06T06:57:49;2.80;99.90
19920;DHT22;10122;50.074;19.920;2024-01-06T07:00:15;2.80;99.90
19920;DHT22;10122;50.074;19.920;2024-01-06T07:02:42;2.90;99.90
19920;DHT22;10122;50.074;19.920;2024-01-06T07:05:08;2.90;99.90
19920;DHT22;10122;50.074;19.920;2024-01-06T07:07:34;2.80;99.90
19920;DHT22;10122;50.074;19.920;2024-01-06T07:10:05;2.80;99.90
19920;DHT22;10122;50.074;19.920;2024-01-06T07:12:32;2.90;99.90
19920;DHT22;10122;50.074;19.920;2024-01-06T07:14:57;2.90;99.90
19920;DHT22;10122;50.074;19.920;2024-01-06T07:17:24;2.90;99.90
19920;DHT22;10122;50.074;19.920;2024-01-06T07:19:51;2.90;99.90
19920;DHT22;10122;50.074;19.920;2024-01-06T07:22:16;2.90;99.90
19920;DHT22;10122;50.074;19.920;2024-01-06T07:24:43;2.80;99.90
19920;DHT22;10122;50.074;19.920;2024-01-06T07:27:09;2.90;99.90
19920;DHT22;10122;50.074;19.920;2024-01-06T07:29:35;3.00;99.90
19920;DHT22;10122;50.074;19.920;2024-01-06T07:32:00;3.00;99.90
19920;DHT22;10122;50.074;19.920;2024-01-06T07:34:26;3.00;99.90
19920;DHT22;10122;50.074;19.920;2024-01-06T07:36:52;2.90;99.90
19920;DHT22;10122;50.074;19.920;2024-01-06T07:39:18;2.90;99.90
19920;DHT22;10122;50.074;19.920;2024-01-06T07:41:44;2.90;99.90
19920;DHT22;10122;50.074;19.920;2024-01-06T07:44:12;2.90;99.90
19920;DHT22;10122;50.074;19.920;2024-01-06T07:46:38;2.90;99.90
19920;DHT22;10122;50.074;19.920;2024-01-06T07:49:05;2.80;99.90
19920;DHT22;10122;50.074;19.920;2024-01-06T07:51:31;2.90;99.90
19920;DHT22;10122;50.074;19.920;2024-01-06T07:53:57;2.90;99.90
19920;DHT22;10122;50.074;19.920;2024-01-06T07:56:23;2.90;99.90
19920;DHT22;10122;50.074;19.920;2024-01-06T07:58:49;2.90;99.90
19920;DHT22;10122;50.074;19.920;2024-01-06T08:01:15;2.90;99.90
19920;DHT22;10122;50.074;19.920;2024-01-06T08:03:41;2.90;99.90
19920;DHT22;10122;50.074;19.920;2024-01-06T08:06:06;2.90;99.90
19920;DHT22;10122;50.074;19.920;2024-01-06T08:08:32;2.90;99.90
19920;DHT22;10122;50.074;19.920;2024-01-06T08:10:58;2.90;99.90
19920;DHT22;10122;50.074;19.920;2024-01-06T08:13:24;3.00;99.90
19920;DHT22;10122;50.074;19.920;2024-01-06T08:15:50;3.10;99.90
19920;DHT22;10122;50.074;19.920;2024-01-06T08:18:16;3.10;99.90
19920;DHT22;10122;50.074;19.920;2024-01-06T08:20:41;3.20;99.90
19920;DHT22;10122;50.074;19.920;2024-01-06T08:23:08;3.20;99.90
19920;DHT22;10122;50.074;19.920;2024-01-06T08:25:33;3.30;99.90
19920;DHT22;10122;50.074;19.920;2024-01-06T08:27:59;3.40;99.90
19920;DHT22;10122;50.074;19.920;2024-01-06T08:30:25;3.40;99.90
19920;DHT22;10122;50.074;19.920;2024-01-06T08:32:51;3.50;99.90
19920;DHT22;10122;50.074;19.920;2024-01-06T08:35:17;3.50;99.90
19920;DHT22;10122;50.074;19.920;2024-01-06T08:37:44;3.50;99.90
19920;DHT22;10122;50.074;19.920;2024-01-06T08:40:11;3.60;99.90
19920;DHT22;10122;50.074;19.920;2024-01-06T08:42:36;3.60;99.90
19920;DHT22;10122;50.074;19.920;2024-01-06T08:45:03;3.50;99.90
19920;DHT22;10122;50.074;19.920;2024-01-06T08:47:30;3.50;99.90
19920;DHT22;10122;50.074;19.920;2024-01-06T08:49:56;3.50;99.90
19920;DHT22;10122;50.074;19.920;2024-01-06T08:52:21;3.50;99.90
19920;DHT22;10122;50.074;19.920;2024-01-06T08:54:47;3.40;99.90
19920;DHT22;10122;50.074;19.920;2024-01-06T08:57:15;3.50;99.90
19920;DHT22;10122;50.074;19.920;2024-01-06T08:59:40;3.50;99.90
19920;DHT22;10122;50.074;19.920;2024-01-06T09:02:06;3.50;99.90
19920;DHT22;10122;50.074;19.920;2024-01-06T09:04:32;3.50;99.90
19920;DHT22;10122;50.074;19.920;2024-01-06T09:06:57;3.50;99.90
19920;DHT22;10122;50.074;19.920;2024-01-06T09:09:24;3.50;99.90
19920;DHT22;10122;50.074;19.920;2024-01-06T09:11:49;3.40;99.90
19920;DHT22;10122;50.074;19.920;2024-01-06T09:14:17;3.40;99.90
19920;DHT22;10122;50.074;19.920;2024-01-06T09:16:43;3.40;99.90
19920;DHT22;10122;50.074;19.920;2024-01-06T09:19:09;3.40;99.90
19920;DHT22;10122;50.074;19.920;2024-01-06T09:21:34;3.40;99.90
19920;DHT22;10122;50.074;19.920;2024-01-06T09:24:01;3.40;99.90
19920;DHT22;10122;50.074;19.920;2024-01-06T09:26:34;3.40;99.90
19920;DHT22;10122;50.074;19.920;2024-01-06T09:29:01;3.50;99.90
19920;DHT22;10122;50.074;19.920;2024-01-06T09:31:27;3.40;99.90
19920;DHT22;10122;50.074;19.920;2024-01-06T09:33:52;3.40;99.90
19920;DHT22;10122;50.074;19.920;2024-01-06T09:36:18;3.50;99.90
19920;DHT22;10122;50.074;19.920;2024-01-06T09:38:44;3.50;99.90
19920;DHT22;10122;50.074;19.920;2024-01-06T09:41:09;3.50;99.90
19920;DHT22;10122;50.074;19.920;2024-01-06T09:43:35;3.50;99.90
19920;DHT22;10122;50.074;19.920;2024-01-06T09:46:17;3.60;99.90
19920;DHT22;10122;50.074;19.920;2024-01-06T09:48:47;3.50;99.90
19920;DHT22;10122;50.074;19.920;2024-01-06T09:51:15;3.50;99.90
19920;DHT22;10122;50.074;19.920;2024-01-06T09:53:47;3.50;99.90
19920;DHT22;10122;50.074;19.920;2024-01-06T09:56:15;3.50;99.90
19920;DHT22;10122;50.074;19.920;2024-01-06T09:58:41;3.50;99.90
19920;DHT22;10122;50.074;19.920;2024-01-06T10:01:08;3.50;99.90
19920;DHT22;10122;50.074;19.920;2024-01-06T10:03:38;3.60;99.90
19920;DHT22;10122;50.074;19.920;2024-01-06T10:06:04;3.60;99.90
19920;DHT22;10122;50.074;19.920;2024-01-06T10:08:30;3.60;99.90
19920;DHT22;10122;50.074;19.920;2024-01-06T10:11:00;3.70;99.90
19920;DHT22;10122;50.074;19.920;2024-01-06T10:13:26;3.70;99.90
19920;DHT22;10122;50.074;19.920;2024-01-06T10:15:54;3.80;99.90
19920;DHT22;10122;50.074;19.920;2024-01-06T10:18:20;3.80;99.90
19920;DHT22;10122;50.074;19.920;2024-01-06T10:20:47;3.80;99.90
19920;DHT22;10122;50.074;19.920;2024-01-06T10:23:13;3.80;99.90
19920;DHT22;10122;50.074;19.920;2024-01-06T10:25:39;3.80;99.90
19920;DHT22;10122;50.074;19.920;2024-01-06T10:28:05;3.70;99.90
19920;DHT22;10122;50.074;19.920;2024-01-06T10:30:31;3.70;99.90
19920;DHT22;10122;50.074;19.920;2024-01-06T10:32:57;3.70;99.90
19920;DHT22;10122;50.074;19.920;2024-01-06T10:35:25;3.70;99.90
19920;DHT22;10122;50.074;19.920;2024-01-06T10:37:51;3.70;99.90
19920;DHT22;10122;50.074;19.920;2024-01-06T10:40:17;3.80;99.90
19920;DHT22;10122;50.074;19.920;2024-01-06T10:42:44;3.80;99.90
19920;DHT22;10122;50.074;19.920;2024-01-06T10:45:12;3.80;99.90
19920;DHT22;10122;50.074;19.920;2024-01-06T10:47:40;3.70;99.90
19920;DHT22;10122;50.074;19.920;2024-01-06T10:50:07;3.70;99.90
19920;DHT22;10122;50.074;19.920;2024-01-06T10:52:34;3.70;99.90
19920;DHT22;10122;50.074;19.920;2024-01-06T10:55:04;3.70;99.90
19920;DHT22;10122;50.074;19.920;2024-01-06T10:57:31;3.60;99.90
19920;DHT22;10122;50.074;19.920;2024-01-06T11:00:00;3.60;99.90
19920;DHT22;10122;50.074;19.920;2024-01-06T11:02:27;3.60;99.90
19920;DHT22;10122;50.074;19.920;2024-01-06T11:04:53;3.70;99.90
19920;DHT22;10122;50.074;19.920;2024-01-06T11:07:20;3.70;99.90
19920;DHT22;10122;50.074;19.920;2024-01-06T11:12:18;3.80;99.90
19920;DHT22;10122;50.074;19.920;2024-01-06T11:14:44;3.80;99.90
19920;DHT22;10122;50.074;19.920;2024-01-06T11:17:11;3.80;99.90
19920;DHT22;10122;50.074;19.920;2024-01-06T11:20:05;3.90;99.90
19920;DHT22;10122;50.074;19.920;2024-01-06T11:22:31;3.90;99.90
19920;DHT22;10122;50.074;19.920;2024-01-06T11:25:04;4.00;99.90
19920;DHT22;10122;50.074;19.920;2024-01-06T11:27:31;3.90;99.90
19920;DHT22;10122;50.074;19.920;2024-01-06T11:29:58;3.90;99.90
19920;DHT22;10122;50.074;19.920;2024-01-06T11:32:30;3.80;99.90
19920;DHT22;10122;50.074;19.920;2024-01-06T11:35:14;3.80;99.90
19920;DHT22;10122;50.074;19.920;2024-01-06T11:42:34;4.00;99.90
19920;DHT22;10122;50.074;19.920;2024-01-06T11:45:04;4.10;99.90
19920;DHT22;10122;50.074;19.920;2024-01-06T11:47:34;4.10;99.90
19920;DHT22;10122;50.074;19.920;2024-01-06T11:50:01;4.10;99.90
19920;DHT22;10122;50.074;19.920;2024-01-06T11:52:33;4.00;99.90
19920;DHT22;10122;50.074;19.920;2024-01-06T11:55:00;4.00;99.90
19920;DHT22;10122;50.074;19.920;2024-01-06T11:57:27;4.00;99.90
19920;DHT22;10122;50.074;19.920;2024-01-06T11:59:53;3.90;99.90
19920;DHT22;10122;50.074;19.920;2024-01-06T12:02:19;3.90;99.90
19920;DHT22;10122;50.074;19.920;2024-01-06T12:04:52;3.90;99.90
19920;DHT22;10122;50.074;19.920;2024-01-06T12:07:19;3.90;99.90
19920;DHT22;10122;50.074;19.920;2024-01-06T12:09:50;3.90;99.90
19920;DHT22;10122;50.074;19.920;2024-01-06T12:12:17;3.80;99.90
19920;DHT22;10122;50.074;19.920;2024-01-06T12:14:42;3.80;99.90
19920;DHT22;10122;50.074;19.920;2024-01-06T12:17:09;3.80;99.90
19920;DHT22;10122;50.074;19.920;2024-01-06T12:19:35;3.90;99.90
19920;DHT22;10122;50.074;19.920;2024-01-06T12:22:02;3.80;99.90
19920;DHT22;10122;50.074;19.920;2024-01-06T12:24:28;3.80;99.90
19920;DHT22;10122;50.074;19.920;2024-01-06T12:26:56;3.80;99.90
19920;DHT22;10122;50.074;19.920;2024-01-06T12:29:26;3.70;99.90
19920;DHT22;10122;50.074;19.920;2024-01-06T12:31:53;3.70;99.90
19920;DHT22;10122;50.074;19.920;2024-01-06T12:34:18;3.80;99.90
19920;DHT22;10122;50.074;19.920;2024-01-06T12:36:44;3.70;99.90
19920;DHT22;10122;50.074;19.920;2024-01-06T12:39:12;3.70;99.90
19920;DHT22;10122;50.074;19.920;2024-01-06T12:41:40;3.70;99.90
19920;DHT22;10122;50.074;19.920;2024-01-06T12:44:06;3.70;99.90
19920;DHT22;10122;50.074;19.920;2024-01-06T12:46:33;3.70;99.90
19920;DHT22;10122;50.074;19.920;2024-01-06T12:48:58;3.80;99.90
19920;DHT22;10122;50.074;19.920;2024-01-06T12:51:24;3.80;99.90
19920;DHT22;10122;50.074;19.920;2024-01-06T12:53:50;3.80;99.90
19920;DHT22;10122;50.074;19.920;2024-01-06T12:56:16;3.90;99.90
19920;DHT22;10122;50.074;19.920;2024-01-06T12:58:42;3.90;99.90
19920;DHT22;10122;50.074;19.920;2024-01-06T13:01:09;4.00;99.90
19920;DHT22;10122;50.074;19.920;2024-01-06T13:03:35;3.90;99.90
19920;DHT22;10122;50.074;19.920;2024-01-06T13:06:01;3.90;99.90
19920;DHT22;10122;50.074;19.920;2024-01-06T13:08:27;3.70;99.90
19920;DHT22;10122;50.074;19.920;2024-01-06T13:10:56;3.70;99.90
19920;DHT22;10122;50.074;19.920;2024-01-06T13:13:22;3.60;99.90
19920;DHT22;10122;50.074;19.920;2024-01-06T13:15:48;3.60;99.90
19920;DHT22;10122;50.074;19.920;2024-01-06T13:18:14;3.60;99.90
19920;DHT22;10122;50.074;19.920;2024-01-06T13:20:42;3.60;99.90
19920;DHT22;10122;50.074;19.920;2024-01-06T13:23:09;3.60;99.90
19920;DHT22;10122;50.074;19.920;2024-01-06T13:25:35;3.60;99.90
19920;DHT22;10122;50.074;19.920;2024-01-06T13:28:01;3.60;99.90
19920;DHT22;10122;50.074;19.920;2024-01-06T13:30:27;3.60;99.90
19920;DHT22;10122;50.074;19.920;2024-01-06T13:32:53;3.50;99.90
19920;DHT22;10122;50.074;19.920;2024-01-06T13:35:22;3.60;99.90
19920;DHT22;10122;50.074;19.920;2024-01-06T13:37:53;3.60;99.90
19920;DHT22;10122;50.074;19.920;2024-01-06T13:40:21;3.50;99.90
19920;DHT22;10122;50.074;19.920;2024-01-06T13:42:48;3.50;99.90
19920;DHT22;10122;50.074;19.920;2024-01-06T13:45:14;3.50;99.90
19920;DHT22;10122;50.074;19.920;2024-01-06T13:47:41;3.50;99.90
19920;DHT22;10122;50.074;19.920;2024-01-06T13:50:13;3.50;99.90
19920;DHT22;10122;50.074;19.920;2024-01-06T13:52:39;3.40;99.90
19920;DHT22;10122;50.074;19.920;2024-01-06T13:55:05;3.40;99.90
19920;DHT22;10122;50.074;19.920;2024-01-06T13:57:32;3.40;99.90
19920;DHT22;10122;50.074;19.920;2024-01-06T13:59:57;3.40;99.90
19920;DHT22;10122;50.074;19.920;2024-01-06T14:02:24;3.30;99.90
19920;DHT22;10122;50.074;19.920;2024-01-06T14:04:50;3.30;99.90
19920;DHT22;10122;50.074;19.920;2024-01-06T14:07:16;3.30;99.90
19920;DHT22;10122;50.074;19.920;2024-01-06T14:09:45;3.30;99.90
19920;DHT22;10122;50.074;19.920;2024-01-06T14:12:11;3.30;99.90
19920;DHT22;10122;50.074;19.920;2024-01-06T14:14:39;3.30;99.90
19920;DHT22;10122;50.074;19.920;2024-01-06T14:17:05;3.40;99.90
19920;DHT22;10122;50.074;19.920;2024-01-06T14:19:30;3.30;99.90
19920;DHT22;10122;50.074;19.920;2024-01-06T14:21:56;3.30;99.90
19920;DHT22;10122;50.074;19.920;2024-01-06T14:24:22;3.30;99.90
19920;DHT22;10122;50.074;19.920;2024-01-06T14:26:51;3.40;99.90
19920;DHT22;10122;50.074;19.920;2024-01-06T14:29:18;3.30;99.90
19920;DHT22;10122;50.074;19.920;2024-01-06T14:31:45;3.30;99.90
19920;DHT22;10122;50.074;19.920;2024-01-06T14:34:11;3.20;99.90
19920;DHT22;10122;50.074;19.920;2024-01-06T14:36:37;3.30;99.90
19920;DHT22;10122;50.074;19.920;2024-01-06T14:39:02;3.30;99.90
19920;DHT22;10122;50.074;19.920;2024-01-06T14:41:34;3.30;99.90
19920;DHT22;10122;50.074;19.920;2024-01-06T14:44:00;3.20;99.90
19920;DHT22;10122;50.074;19.920;2024-01-06T14:46:25;3.20;99.90
19920;DHT22;10122;50.074;19.920;2024-01-06T14:48:51;3.20;99.90
19920;DHT22;10122;50.074;19.920;2024-01-06T14:51:18;3.20;99.90
19920;DHT22;10122;50.074;19.920;2024-01-06T14:53:43;3.20;99.90
19920;DHT22;10122;50.074;19.920;2024-01-06T14:56:09;3.20;99.90
19920;DHT22;10122;50.074;19.920;2024-01-06T14:58:35;3.20;99.90
19920;DHT22;10122;50.074;19.920;2024-01-06T15:01:01;3.20;99.90
19920;DHT22;10122;50.074;19.920;2024-01-06T15:03:26;3.10;99.90
19920;DHT22;10122;50.074;19.920;2024-01-06T15:05:52;3.10;99.90
19920;DHT22;10122;50.074;19.920;2024-01-06T15:08:18;3.10;99.90
19920;DHT22;10122;50.074;19.920;2024-01-06T15:10:43;3.20;99.90
19920;DHT22;10122;50.074;19.920;2024-01-06T15:13:09;3.20;99.90
19920;DHT22;10122;50.074;19.920;2024-01-06T15:15:35;3.20;99.90
19920;DHT22;10122;50.074;19.920;2024-01-06T15:18:01;3.20;99.90
19920;DHT22;10122;50.074;19.920;2024-01-06T15:20:26;3.20;99.90
19920;DHT22;10122;50.074;19.920;2024-01-06T15:22:53;3.20;99.90
19920;DHT22;10122;50.074;19.920;2024-01-06T15:25:19;3.30;99.90
19920;DHT22;10122;50.074;19.920;2024-01-06T15:27:45;3.30;99.90
19920;DHT22;10122;50.074;19.920;2024-01-06T15:30:12;3.20;99.90
19920;DHT22;10122;50.074;19.920;2024-01-06T15:32:38;3.20;99.90